sensor_id;sensor_type;location;lat;lon;timestamp;pressure;altitude;pressure_sealevel;temperature;humidity
61963;BME280;47927;42.646;23.096;2023-06-10T00:00:38;91825.34;;;19.24;62.04
61963;BME280;47927;42.646;23.096;2023-06-10T00:03:07;91830.66;;;19.24;62.02
61963;BME280;47927;42.646;23.096;2023-06-10T00:05:33;91827.03;;;19.18;62.02
61963;BME280;47927;42.646;23.096;2023-06-10T00:08:00;91821.88;;;19.14;62.24
61963;BME280;47927;42.646;23.096;2023-06-10T00:10:35;91824.50;;;19.27;61.96
61963;BME280;47927;42.646;23.096;2023-06-10T00:13:02;91828.31;;;19.39;61.62
61963;BME280;47927;42.646;23.096;2023-06-10T00:15:29;91821.47;;;19.41;61.48
61963;BME280;47927;42.646;23.096;2023-06-10T00:17:54;91823.44;;;19.24;61.62
61963;BME280;47927;42.646;23.096;2023-06-10T00:20:20;91824.69;;;18.94;62.88
61963;BME280;47927;42.646;23.096;2023-06-10T00:22:51;91818.78;;;19.03;62.29
61963;BME280;47927;42.646;23.096;2023-06-10T00:25:18;91815.53;;;18.99;62.36
61963;BME280;47927;42.646;23.096;2023-06-10T00:27:43;91812.38;;;19.17;62.32
61963;BME280;47927;42.646;23.096;2023-06-10T00:30:09;91817.31;;;19.27;61.84
61963;BME280;47927;42.646;23.096;2023-06-10T00:32:36;91815.00;;;19.17;61.77
61963;BME280;47927;42.646;23.096;2023-06-10T00:35:03;91802.97;;;19.16;61.51
61963;BME280;47927;42.646;23.096;2023-06-10T00:37:31;91816.59;;;19.27;61.19
61963;BME280;47927;42.646;23.096;2023-06-10T00:39:57;91820.72;;;19.28;61.02
61963;BME280;47927;42.646;23.096;2023-06-10T00:42:24;91820.72;;;19.28;61.47
61963;BME280;47927;42.646;23.096;2023-06-10T00:44:50;91822.09;;;19.32;61.16
61963;BME280;47927;42.646;23.096;2023-06-10T00:47:17;91828.88;;;19.33;61.03
61963;BME280;47927;42.646;23.096;2023-06-10T00:49:43;91825.47;;;19.20;61.24
61963;BME280;47927;42.646;23.096;2023-06-10T00:52:10;91830.97;;;19.13;61.59
61963;BME280;47927;42.646;23.096;2023-06-10T00:54:39;91833.22;;;18.85;62.44
61963;BME280;47927;42.646;23.096;2023-06-10T00:57:05;91831.63;;;18.88;62.50
61963;BME280;47927;42.646;23.096;2023-06-10T00:59:31;91833.66;;;18.97;62.04
61963;BME280;47927;42.646;23.096;2023-06-10T01:01:57;91833.78;;;19.06;61.35
61963;BME280;47927;42.646;23.096;2023-06-10T01:04:23;91848.50;;;19.07;61.63
61963;BME280;47927;42.646;23.096;2023-06-10T01:14:49;91838.47;;;19.27;61.13
61963;BME280;47927;42.646;23.096;2023-06-10T01:17:16;91836.88;;;19.30;61.06
61963;BME280;47927;42.646;23.096;2023-06-10T01:19:44;91841.44;;;19.29;61.04
61963;BME280;47927;42.646;23.096;2023-06-10T01:22:09;91831.91;;;19.19;61.33
61963;BME280;47927;42.646;23.096;2023-06-10T01:24:37;91836.75;;;19.21;61.32
61963;BME280;47927;42.646;23.096;2023-06-10T01:27:11;91829.13;;;18.97;61.88
61963;BME280;47927;42.646;23.096;2023-06-10T01:29:45;91829.31;;;18.77;62.64
61963;BME280;47927;42.646;23.096;2023-06-10T01:32:19;91830.81;;;18.91;62.40
61963;BME280;47927;42.646;23.096;2023-06-10T01:34:47;91823.00;;;19.00;61.84
61963;BME280;47927;42.646;23.096;2023-06-10T01:37:18;91822.38;;;19.09;61.80
61963;BME280;47927;42.646;23.096;2023-06-10T01:39:46;91813.00;;;19.08;61.43
61963;BME280;47927;42.646;23.096;2023-06-10T01:42:12;91831.19;;;19.19;61.11
61963;BME280;47927;42.646;23.096;2023-06-10T01:44:41;91827.59;;;19.25;61.25
61963;BME280;47927;42.646;23.096;2023-06-10T01:47:08;91824.16;;;18.99;61.28
61963;BME280;47927;42.646;23.096;2023-06-10T01:49:34;91825.06;;;18.51;62.88
61963;BME280;47927;42.646;23.096;2023-06-10T01:52:00;91817.69;;;18.75;62.23
61963;BME280;47927;42.646;23.096;2023-06-10T01:54:25;91807.03;;;18.78;62.28
61963;BME280;47927;42.646;23.096;2023-06-10T01:56:51;91815.69;;;18.92;61.51
61963;BME280;47927;42.646;23.096;2023-06-10T01:59:17;91802.94;;;18.90;61.54
61963;BME280;47927;42.646;23.096;2023-06-10T02:01:42;91815.00;;;19.04;61.41
61963;BME280;47927;42.646;23.096;2023-06-10T02:04:10;91816.88;;;19.03;61.17
61963;BME280;47927;42.646;23.096;2023-06-10T02:06:35;91812.78;;;19.02;61.01
61963;BME280;47927;42.646;23.096;2023-06-10T02:09:03;91814.69;;;19.02;61.08
61963;BME280;47927;42.646;23.096;2023-06-10T02:11:28;91821.13;;;18.72;61.99
61963;BME280;47927;42.646;23.096;2023-06-10T02:13:54;91826.41;;;18.72;62.33
61963;BME280;47927;42.646;23.096;2023-06-10T02:16:20;91817.25;;;18.76;62.17
61963;BME280;47927;42.646;23.096;2023-06-10T02:18:46;91812.19;;;18.82;62.17
61963;BME280;47927;42.646;23.096;2023-06-10T02:21:12;91816.75;;;18.81;62.19
61963;BME280;47927;42.646;23.096;2023-06-10T02:23:37;91813.03;;;18.79;62.20
61963;BME280;47927;42.646;23.096;2023-06-10T02:26:04;91818.53;;;18.84;62.17
61963;BME280;47927;42.646;23.096;2023-06-10T02:28:29;91818.44;;;18.88;62.09
61963;BME280;47927;42.646;23.096;2023-06-10T02:30:56;91816.53;;;18.88;62.40
61963;BME280;47927;42.646;23.096;2023-06-10T02:33:22;91811.81;;;18.96;62.02
61963;BME280;47927;42.646;23.096;2023-06-10T02:35:49;91801.97;;;18.55;63.47
61963;BME280;47927;42.646;23.096;2023-06-10T02:38:15;91804.50;;;18.29;64.50
61963;BME280;47927;42.646;23.096;2023-06-10T02:40:42;91807.06;;;18.62;63.64
61963;BME280;47927;42.646;23.096;2023-06-10T02:43:09;91795.16;;;18.70;63.06
61963;BME280;47927;42.646;23.096;2023-06-10T02:45:35;91809.50;;;18.98;62.48
61963;BME280;47927;42.646;23.096;2023-06-10T02:48:02;91802.19;;;18.89;62.56
61963;BME280;47927;42.646;23.096;2023-06-10T02:50:29;91805.91;;;18.63;63.68
61963;BME280;47927;42.646;23.096;2023-06-10T02:53:02;91809.22;;;18.80;63.10
61963;BME280;47927;42.646;23.096;2023-06-10T02:55:29;91803.16;;;18.96;62.85
61963;BME280;47927;42.646;23.096;2023-06-10T02:57:59;91805.38;;;18.97;62.69
61963;BME280;47927;42.646;23.096;2023-06-10T03:00:26;91796.94;;;19.02;62.52
61963;BME280;47927;42.646;23.096;2023-06-10T03:02:52;91802.44;;;19.08;62.55
61963;BME280;47927;42.646;23.096;2023-06-10T03:05:24;91807.50;;;19.15;62.36
61963;BME280;47927;42.646;23.096;2023-06-10T03:07:52;91807.81;;;19.04;62.71
61963;BME280;47927;42.646;23.096;2023-06-10T03:10:18;91815.09;;;19.00;62.43
61963;BME280;47927;42.646;23.096;2023-06-10T03:12:44;91822.22;;;18.74;63.69
61963;BME280;47927;42.646;23.096;2023-06-10T03:15:10;91822.38;;;18.96;63.08
61963;BME280;47927;42.646;23.096;2023-06-10T03:17:35;91825.53;;;18.91;63.08
61963;BME280;47927;42.646;23.096;2023-06-10T03:20:02;91819.22;;;19.01;62.81
61963;BME280;47927;42.646;23.096;2023-06-10T03:22:28;91821.97;;;19.10;62.72
61963;BME280;47927;42.646;23.096;2023-06-10T03:25:01;91819.44;;;19.20;62.56
61963;BME280;47927;42.646;23.096;2023-06-10T03:27:27;91818.94;;;19.25;62.32
61963;BME280;47927;42.646;23.096;2023-06-10T03:29:57;91807.94;;;19.26;61.90
61963;BME280;47927;42.646;23.096;2023-06-10T03:32:23;91815.97;;;19.23;62.20
61963;BME280;47927;42.646;23.096;2023-06-10T03:34:49;91801.69;;;19.07;62.95
61963;BME280;47927;42.646;23.096;2023-06-10T03:37:14;91809.63;;;19.20;62.59
61963;BME280;47927;42.646;23.096;2023-06-10T03:39:41;91813.09;;;19.30;62.39
61963;BME280;47927;42.646;23.096;2023-06-10T03:42:07;91803.50;;;19.36;61.90
61963;BME280;47927;42.646;23.096;2023-06-10T03:44:33;91806.97;;;19.33;62.00
61963;BME280;47927;42.646;23.096;2023-06-10T03:46:59;91801.19;;;19.38;62.03
61963;BME280;47927;42.646;23.096;2023-06-10T03:49:25;91803.19;;;19.47;61.84
61963;BME280;47927;42.646;23.096;2023-06-10T03:51:56;91783.75;;;19.41;61.92
61963;BME280;47927;42.646;23.096;2023-06-10T03:54:22;91787.44;;;18.92;63.45
61963;BME280;47927;42.646;23.096;2023-06-10T03:56:48;91791.88;;;18.95;63.65
61963;BME280;47927;42.646;23.096;2023-06-10T03:59:14;91793.09;;;18.78;64.20
61963;BME280;47927;42.646;23.096;2023-06-10T04:01:39;91794.56;;;18.50;65.27
61963;BME280;47927;42.646;23.096;2023-06-10T04:04:06;91776.16;;;18.62;64.80
61963;BME280;47927;42.646;23.096;2023-06-10T04:06:33;91789.75;;;19.03;64.13
61963;BME280;47927;42.646;23.096;2023-06-10T04:08:59;91790.50;;;19.29;63.39
61963;BME280;47927;42.646;23.096;2023-06-10T04:11:26;91796.53;;;19.42;63.04
61963;BME280;47927;42.646;23.096;2023-06-10T04:13:53;91804.66;;;19.35;63.08
61963;BME280;47927;42.646;23.096;2023-06-10T04:16:20;91807.00;;;19.46;62.79
61963;BME280;47927;42.646;23.096;2023-06-10T04:18:47;91813.66;;;19.38;62.89
61963;BME280;47927;42.646;23.096;2023-06-10T04:21:12;91806.47;;;19.38;63.15
61963;BME280;47927;42.646;23.096;2023-06-10T04:23:38;91803.06;;;19.50;62.65
61963;BME280;47927;42.646;23.096;2023-06-10T04:26:05;91804.13;;;19.66;62.86
61963;BME280;47927;42.646;23.096;2023-06-10T04:28:31;91804.56;;;19.77;62.43
61963;BME280;47927;42.646;23.096;2023-06-10T04:30:58;91799.59;;;19.79;62.73
61963;BME280;47927;42.646;23.096;2023-06-10T04:33:23;91799.47;;;19.83;62.43
61963;BME280;47927;42.646;23.096;2023-06-10T04:35:50;91808.22;;;19.92;62.24
61963;BME280;47927;42.646;23.096;2023-06-10T04:38:18;91807.78;;;20.07;62.09
61963;BME280;47927;42.646;23.096;2023-06-10T04:40:44;91808.19;;;20.18;62.24
61963;BME280;47927;42.646;23.096;2023-06-10T04:43:11;91804.00;;;20.30;61.91
61963;BME280;47927;42.646;23.096;2023-06-10T04:45:37;91808.88;;;20.31;61.55
61963;BME280;47927;42.646;23.096;2023-06-10T04:48:02;91814.06;;;20.35;61.56
61963;BME280;47927;42.646;23.096;2023-06-10T04:50:28;91803.84;;;20.46;61.29
61963;BME280;47927;42.646;23.096;2023-06-10T04:52:54;91810.72;;;20.56;60.97
61963;BME280;47927;42.646;23.096;2023-06-10T04:55:22;91804.44;;;20.63;60.55
61963;BME280;47927;42.646;23.096;2023-06-10T04:57:48;91806.94;;;20.66;60.28
61963;BME280;47927;42.646;23.096;2023-06-10T05:00:14;91807.88;;;20.73;60.83
61963;BME280;47927;42.646;23.096;2023-06-10T05:02:39;91808.97;;;20.84;59.98
61963;BME280;47927;42.646;23.096;2023-06-10T05:05:05;91807.19;;;20.81;60.05
61963;BME280;47927;42.646;23.096;2023-06-10T05:07:31;91804.13;;;20.83;60.34
61963;BME280;47927;42.646;23.096;2023-06-10T05:09:57;91806.41;;;20.71;59.75
61963;BME280;47927;42.646;23.096;2023-06-10T05:12:22;91816.50;;;20.86;59.63
61963;BME280;47927;42.646;23.096;2023-06-10T05:14:48;91813.34;;;20.78;59.92
61963;BME280;47927;42.646;23.096;2023-06-10T05:17:13;91813.97;;;20.82;59.81
61963;BME280;47927;42.646;23.096;2023-06-10T05:19:39;91818.56;;;20.91;59.88
61963;BME280;47927;42.646;23.096;2023-06-10T05:22:04;91812.94;;;20.80;60.14
61963;BME280;47927;42.646;23.096;2023-06-10T05:24:30;91816.72;;;20.79;60.62
61963;BME280;47927;42.646;23.096;2023-06-10T05:26:55;91827.34;;;20.44;61.60
61963;BME280;47927;42.646;23.096;2023-06-10T05:29:21;91817.69;;;20.50;62.02
61963;BME280;47927;42.646;23.096;2023-06-10T05:31:46;91829.56;;;20.45;62.35
61963;BME280;47927;42.646;23.096;2023-06-10T05:34:12;91827.41;;;20.66;61.67
61963;BME280;47927;42.646;23.096;2023-06-10T05:36:38;91823.88;;;20.91;61.09
61963;BME280;47927;42.646;23.096;2023-06-10T05:39:03;91826.84;;;20.93;61.06
61963;BME280;47927;42.646;23.096;2023-06-10T05:41:29;91830.56;;;21.05;61.53
61963;BME280;47927;42.646;23.096;2023-06-10T05:43:55;91839.09;;;21.31;61.22
61963;BME280;47927;42.646;23.096;2023-06-10T05:46:21;91833.94;;;21.27;60.21
61963;BME280;47927;42.646;23.096;2023-06-10T05:48:46;91834.41;;;21.35;59.93
61963;BME280;47927;42.646;23.096;2023-06-10T05:51:12;91831.03;;;21.34;59.77
61963;BME280;47927;42.646;23.096;2023-06-10T05:53:38;91830.59;;;21.67;59.07
61963;BME280;47927;42.646;23.096;2023-06-10T05:56:04;91816.44;;;21.61;58.96
61963;BME280;47927;42.646;23.096;2023-06-10T05:58:29;91827.13;;;21.89;57.46
61963;BME280;47927;42.646;23.096;2023-06-10T06:00:55;91818.75;;;21.99;57.68
61963;BME280;47927;42.646;23.096;2023-06-10T06:03:20;91819.13;;;22.29;56.87
61963;BME280;47927;42.646;23.096;2023-06-10T06:05:46;91828.69;;;22.45;54.42
61963;BME280;47927;42.646;23.096;2023-06-10T06:08:11;91826.03;;;22.45;55.24
61963;BME280;47927;42.646;23.096;2023-06-10T06:10:38;91826.03;;;22.45;54.97
61963;BME280;47927;42.646;23.096;2023-06-10T06:13:04;91832.09;;;22.55;54.40
61963;BME280;47927;42.646;23.096;2023-06-10T06:15:29;91832.22;;;22.69;54.35
61963;BME280;47927;42.646;23.096;2023-06-10T06:17:55;91832.09;;;22.82;53.73
61963;BME280;47927;42.646;23.096;2023-06-10T06:20:22;91833.28;;;23.00;54.10
61963;BME280;47927;42.646;23.096;2023-06-10T06:22:48;91832.41;;;23.03;53.51
61963;BME280;47927;42.646;23.096;2023-06-10T06:25:14;91831.03;;;23.07;54.91
61963;BME280;47927;42.646;23.096;2023-06-10T06:27:40;91832.97;;;23.07;53.15
61963;BME280;47927;42.646;23.096;2023-06-10T06:30:06;91836.69;;;23.00;54.42
61963;BME280;47927;42.646;23.096;2023-06-10T06:32:32;91836.19;;;23.20;55.06
61963;BME280;47927;42.646;23.096;2023-06-10T06:34:57;91820.34;;;23.35;52.95
61963;BME280;47927;42.646;23.096;2023-06-10T06:37:24;91837.06;;;23.78;51.92
61963;BME280;47927;42.646;23.096;2023-06-10T06:39:57;91830.50;;;24.45;50.62
61963;BME280;47927;42.646;23.096;2023-06-10T06:42:23;91836.88;;;24.77;49.49
61963;BME280;47927;42.646;23.096;2023-06-10T06:45:09;91841.69;;;25.03;49.64
61963;BME280;47927;42.646;23.096;2023-06-10T06:47:35;91831.69;;;24.98;49.77
61963;BME280;47927;42.646;23.096;2023-06-10T06:50:00;91826.16;;;25.61;48.14
61963;BME280;47927;42.646;23.096;2023-06-10T06:52:27;91824.16;;;26.06;47.62
61963;BME280;47927;42.646;23.096;2023-06-10T06:54:52;91824.25;;;26.52;46.37
61963;BME280;47927;42.646;23.096;2023-06-10T06:57:18;91829.00;;;26.63;45.53
61963;BME280;47927;42.646;23.096;2023-06-10T06:59:43;91823.06;;;26.53;44.83
61963;BME280;47927;42.646;23.096;2023-06-10T07:02:10;91823.28;;;26.35;45.09
61963;BME280;47927;42.646;23.096;2023-06-10T07:04:36;91819.69;;;25.97;47.41
61963;BME280;47927;42.646;23.096;2023-06-10T07:07:01;91811.88;;;26.14;47.15
61963;BME280;47927;42.646;23.096;2023-06-10T07:09:27;91816.75;;;27.03;45.09
61963;BME280;47927;42.646;23.096;2023-06-10T07:11:53;91819.56;;;27.78;43.11
61963;BME280;47927;42.646;23.096;2023-06-10T07:14:19;91822.66;;;29.89;38.70
61963;BME280;47927;42.646;23.096;2023-06-10T07:16:44;91822.78;;;30.48;36.37
61963;BME280;47927;42.646;23.096;2023-06-10T07:19:11;91813.00;;;31.74;34.96
61963;BME280;47927;42.646;23.096;2023-06-10T07:21:36;91812.72;;;32.08;33.21
61963;BME280;47927;42.646;23.096;2023-06-10T07:24:03;91812.06;;;30.36;35.68
61963;BME280;47927;42.646;23.096;2023-06-10T07:26:29;91808.00;;;30.71;36.00
61963;BME280;47927;42.646;23.096;2023-06-10T07:28:54;91814.84;;;29.97;37.00
61963;BME280;47927;42.646;23.096;2023-06-10T07:31:20;91814.63;;;30.70;35.72
61963;BME280;47927;42.646;23.096;2023-06-10T07:33:46;91814.53;;;30.93;33.71
61963;BME280;47927;42.646;23.096;2023-06-10T07:36:12;91815.56;;;33.03;32.70
61963;BME280;47927;42.646;23.096;2023-06-10T07:38:38;91814.53;;;35.09;28.69
61963;BME280;47927;42.646;23.096;2023-06-10T07:41:03;91811.44;;;36.67;25.83
61963;BME280;47927;42.646;23.096;2023-06-10T07:43:29;91804.66;;;35.95;26.00
61963;BME280;47927;42.646;23.096;2023-06-10T07:45:55;91809.81;;;34.62;28.29
61963;BME280;47927;42.646;23.096;2023-06-10T07:48:21;91814.56;;;34.82;25.97
61963;BME280;47927;42.646;23.096;2023-06-10T07:50:46;91809.19;;;36.50;22.81
61963;BME280;47927;42.646;23.096;2023-06-10T07:53:12;91815.25;;;36.07;23.83
61963;BME280;47927;42.646;23.096;2023-06-10T07:55:37;91813.84;;;35.92;24.91
61963;BME280;47927;42.646;23.096;2023-06-10T07:58:02;91810.94;;;36.11;21.40
61963;BME280;47927;42.646;23.096;2023-06-10T08:00:28;91815.44;;;36.09;22.40
61963;BME280;47927;42.646;23.096;2023-06-10T08:02:53;91815.41;;;38.00;21.17
61963;BME280;47927;42.646;23.096;2023-06-10T08:05:19;91811.81;;;38.84;19.01
61963;BME280;47927;42.646;23.096;2023-06-10T08:07:45;91805.78;;;38.22;20.14
61963;BME280;47927;42.646;23.096;2023-06-10T08:10:11;91814.34;;;38.82;19.93
61963;BME280;47927;42.646;23.096;2023-06-10T08:12:37;91814.81;;;37.48;20.49
61963;BME280;47927;42.646;23.096;2023-06-10T08:15:03;91808.69;;;38.01;19.52
61963;BME280;47927;42.646;23.096;2023-06-10T08:17:31;91812.75;;;37.17;20.13
61963;BME280;47927;42.646;23.096;2023-06-10T08:19:57;91810.19;;;38.73;19.45
61963;BME280;47927;42.646;23.096;2023-06-10T08:22:23;91813.78;;;39.64;18.18
61963;BME280;47927;42.646;23.096;2023-06-10T08:24:49;91815.31;;;39.82;17.87
61963;BME280;47927;42.646;23.096;2023-06-10T08:27:14;91809.06;;;37.67;19.08
61963;BME280;47927;42.646;23.096;2023-06-10T08:29:40;91817.53;;;35.39;20.33
61963;BME280;47927;42.646;23.096;2023-06-10T08:32:06;91807.19;;;34.69;21.61
61963;BME280;47927;42.646;23.096;2023-06-10T08:34:35;91811.28;;;34.97;21.74
61963;BME280;47927;42.646;23.096;2023-06-10T08:37:02;91807.31;;;36.09;20.88
61963;BME280;47927;42.646;23.096;2023-06-10T08:39:27;91804.34;;;35.57;21.47
61963;BME280;47927;42.646;23.096;2023-06-10T08:44:40;91806.31;;;35.35;21.47
61963;BME280;47927;42.646;23.096;2023-06-10T08:47:14;91803.91;;;35.11;21.83
61963;BME280;47927;42.646;23.096;2023-06-10T08:49:45;91802.28;;;35.29;21.98
61963;BME280;47927;42.646;23.096;2023-06-10T08:52:20;91785.75;;;35.19;22.57
61963;BME280;47927;42.646;23.096;2023-06-10T08:54:54;91778.59;;;36.49;21.62
61963;BME280;47927;42.646;23.096;2023-06-10T08:57:22;91782.31;;;36.02;20.85
61963;BME280;47927;42.646;23.096;2023-06-10T08:59:49;91781.22;;;36.26;20.21
61963;BME280;47927;42.646;23.096;2023-06-10T09:02:15;91781.53;;;36.52;20.67
61963;BME280;47927;42.646;23.096;2023-06-10T09:04:44;91796.28;;;36.71;21.12
61963;BME280;47927;42.646;23.096;2023-06-10T09:07:12;91784.50;;;36.69;22.21
61963;BME280;47927;42.646;23.096;2023-06-10T09:09:42;91783.97;;;37.30;22.35
61963;BME280;47927;42.646;23.096;2023-06-10T09:12:08;91774.06;;;37.48;21.35
61963;BME280;47927;42.646;23.096;2023-06-10T09:14:34;91782.50;;;37.13;21.39
61963;BME280;47927;42.646;23.096;2023-06-10T09:16:59;91784.72;;;35.85;22.41
61963;BME280;47927;42.646;23.096;2023-06-10T09:19:26;91783.50;;;35.31;22.67
61963;BME280;47927;42.646;23.096;2023-06-10T09:21:52;91779.53;;;34.98;22.95
61963;BME280;47927;42.646;23.096;2023-06-10T09:24:18;91779.22;;;34.00;25.55
61963;BME280;47927;42.646;23.096;2023-06-10T09:26:43;91773.09;;;34.40;24.11
61963;BME280;47927;42.646;23.096;2023-06-10T09:29:11;91770.66;;;34.76;23.58
61963;BME280;47927;42.646;23.096;2023-06-10T09:31:38;91772.28;;;34.92;22.84
61963;BME280;47927;42.646;23.096;2023-06-10T09:34:12;91768.66;;;35.66;22.09
61963;BME280;47927;42.646;23.096;2023-06-10T09:36:38;91771.94;;;34.48;22.50
61963;BME280;47927;42.646;23.096;2023-06-10T09:39:05;91766.25;;;32.21;24.92
61963;BME280;47927;42.646;23.096;2023-06-10T09:41:40;91770.34;;;33.09;25.85
61963;BME280;47927;42.646;23.096;2023-06-10T09:44:17;91747.38;;;32.83;24.60
61963;BME280;47927;42.646;23.096;2023-06-10T09:46:46;91757.97;;;32.81;25.26
61963;BME280;47927;42.646;23.096;2023-06-10T09:49:12;91755.56;;;33.61;24.82
61963;BME280;47927;42.646;23.096;2023-06-10T09:51:49;91753.22;;;33.97;24.72
61963;BME280;47927;42.646;23.096;2023-06-10T09:54:15;91747.91;;;33.78;24.59
61963;BME280;47927;42.646;23.096;2023-06-10T09:56:40;91754.88;;;33.74;26.31
61963;BME280;47927;42.646;23.096;2023-06-10T09:59:08;91738.41;;;32.94;25.37
61963;BME280;47927;42.646;23.096;2023-06-10T10:01:34;91755.13;;;33.25;25.67
61963;BME280;47927;42.646;23.096;2023-06-10T10:04:00;91751.09;;;33.64;23.57
61963;BME280;47927;42.646;23.096;2023-06-10T10:06:27;91737.38;;;32.40;25.70
61963;BME280;47927;42.646;23.096;2023-06-10T10:08:53;91745.91;;;33.20;24.46
61963;BME280;47927;42.646;23.096;2023-06-10T10:11:21;91743.03;;;33.77;25.34
61963;BME280;47927;42.646;23.096;2023-06-10T10:13:52;91741.31;;;34.06;25.50
61963;BME280;47927;42.646;23.096;2023-06-10T10:16:21;91745.66;;;33.50;24.86
61963;BME280;47927;42.646;23.096;2023-06-10T10:18:52;91742.38;;;31.32;26.99
61963;BME280;47927;42.646;23.096;2023-06-10T10:21:23;91739.44;;;30.53;28.49
61963;BME280;47927;42.646;23.096;2023-06-10T10:23:58;91748.16;;;30.65;27.94
61963;BME280;47927;42.646;23.096;2023-06-10T10:26:26;91737.47;;;29.90;29.12
61963;BME280;47927;42.646;23.096;2023-06-10T10:31:29;91739.78;;;30.27;30.26
61963;BME280;47927;42.646;23.096;2023-06-10T10:34:04;91729.47;;;31.20;28.43
61963;BME280;47927;42.646;23.096;2023-06-10T10:36:30;91728.09;;;31.43;27.96
61963;BME280;47927;42.646;23.096;2023-06-10T10:38:57;91727.16;;;31.65;27.76
61963;BME280;47927;42.646;23.096;2023-06-10T10:41:24;91724.47;;;31.65;27.67
61963;BME280;47927;42.646;23.096;2023-06-10T10:43:52;91718.47;;;31.78;28.24
61963;BME280;47927;42.646;23.096;2023-06-10T10:46:18;91721.22;;;31.72;27.66
61963;BME280;47927;42.646;23.096;2023-06-10T10:48:45;91710.66;;;31.50;28.17
61963;BME280;47927;42.646;23.096;2023-06-10T10:51:11;91697.91;;;31.20;27.98
61963;BME280;47927;42.646;23.096;2023-06-10T10:53:38;91714.69;;;30.08;29.05
61963;BME280;47927;42.646;23.096;2023-06-10T10:56:14;91715.50;;;30.97;28.09
61963;BME280;47927;42.646;23.096;2023-06-10T10:58:41;91716.88;;;31.09;27.63
61963;BME280;47927;42.646;23.096;2023-06-10T11:01:13;91715.31;;;31.49;28.56
61963;BME280;47927;42.646;23.096;2023-06-10T11:03:43;91712.06;;;31.81;26.27
61963;BME280;47927;42.646;23.096;2023-06-10T11:06:14;91701.41;;;31.45;26.18
61963;BME280;47927;42.646;23.096;2023-06-10T11:11:25;91701.97;;;31.02;27.98
61963;BME280;47927;42.646;23.096;2023-06-10T11:16:27;91693.91;;;31.63;28.03
61963;BME280;47927;42.646;23.096;2023-06-10T11:18:54;91690.72;;;31.34;27.82
61963;BME280;47927;42.646;23.096;2023-06-10T11:21:20;91689.00;;;31.37;27.88
61963;BME280;47927;42.646;23.096;2023-06-10T11:23:46;91683.41;;;30.99;28.38
61963;BME280;47927;42.646;23.096;2023-06-10T11:28:38;91690.47;;;31.62;28.52
61963;BME280;47927;42.646;23.096;2023-06-10T11:31:03;91683.09;;;31.87;26.66
61963;BME280;47927;42.646;23.096;2023-06-10T11:33:29;91675.41;;;31.53;27.65
61963;BME280;47927;42.646;23.096;2023-06-10T11:35:56;91674.53;;;31.40;27.51
61963;BME280;47927;42.646;23.096;2023-06-10T11:38:21;91675.88;;;30.56;27.79
61963;BME280;47927;42.646;23.096;2023-06-10T11:40:51;91672.78;;;29.88;27.10
61963;BME280;47927;42.646;23.096;2023-06-10T11:43:17;91686.56;;;29.17;30.11
61963;BME280;47927;42.646;23.096;2023-06-10T11:45:44;91667.06;;;29.05;30.10
61963;BME280;47927;42.646;23.096;2023-06-10T11:48:10;91666.50;;;29.57;30.06
61963;BME280;47927;42.646;23.096;2023-06-10T11:50:36;91666.13;;;30.06;29.02
61963;BME280;47927;42.646;23.096;2023-06-10T11:53:02;91663.88;;;30.21;27.68
61963;BME280;47927;42.646;23.096;2023-06-10T11:55:41;91675.97;;;30.39;26.46
61963;BME280;47927;42.646;23.096;2023-06-10T11:58:17;91675.56;;;30.29;27.06
61963;BME280;47927;42.646;23.096;2023-06-10T12:00:47;91658.75;;;30.12;29.66
61963;BME280;47927;42.646;23.096;2023-06-10T12:03:13;91667.22;;;30.33;29.41
61963;BME280;47927;42.646;23.096;2023-06-10T12:05:39;91668.25;;;30.13;29.59
61963;BME280;47927;42.646;23.096;2023-06-10T12:08:11;91678.69;;;29.58;28.35
61963;BME280;47927;42.646;23.096;2023-06-10T12:10:41;91664.69;;;29.93;30.48
61963;BME280;47927;42.646;23.096;2023-06-10T12:13:08;91665.25;;;29.81;29.16
61963;BME280;47927;42.646;23.096;2023-06-10T12:15:34;91667.06;;;30.14;28.76
61963;BME280;47927;42.646;23.096;2023-06-10T12:18:01;91659.97;;;30.16;28.47
61963;BME280;47927;42.646;23.096;2023-06-10T12:20:29;91665.88;;;30.04;31.71
61963;BME280;47927;42.646;23.096;2023-06-10T12:22:55;91651.88;;;30.22;32.63
61963;BME280;47927;42.646;23.096;2023-06-10T12:25:25;91660.28;;;30.02;34.14
61963;BME280;47927;42.646;23.096;2023-06-10T12:27:53;91660.44;;;30.20;33.48
61963;BME280;47927;42.646;23.096;2023-06-10T12:30:20;91663.78;;;30.38;33.75
61963;BME280;47927;42.646;23.096;2023-06-10T12:32:46;91654.00;;;30.40;32.97
61963;BME280;47927;42.646;23.096;2023-06-10T12:35:16;91655.03;;;30.32;33.39
61963;BME280;47927;42.646;23.096;2023-06-10T12:40:29;91651.63;;;30.67;32.30
61963;BME280;47927;42.646;23.096;2023-06-10T12:42:55;91661.13;;;30.32;33.53
61963;BME280;47927;42.646;23.096;2023-06-10T12:45:31;91657.72;;;30.68;32.70
61963;BME280;47927;42.646;23.096;2023-06-10T12:48:18;91648.59;;;30.82;31.77
61963;BME280;47927;42.646;23.096;2023-06-10T12:50:44;91645.34;;;30.53;31.93
61963;BME280;47927;42.646;23.096;2023-06-10T12:53:10;91651.06;;;30.74;29.21
61963;BME280;47927;42.646;23.096;2023-06-10T12:55:39;91655.59;;;30.91;29.47
61963;BME280;47927;42.646;23.096;2023-06-10T12:58:04;91638.94;;;30.26;30.06
61963;BME280;47927;42.646;23.096;2023-06-10T13:00:30;91649.13;;;30.33;31.49
61963;BME280;47927;42.646;23.096;2023-06-10T13:02:57;91659.22;;;30.16;32.27
61963;BME280;47927;42.646;23.096;2023-06-10T13:05:22;91647.38;;;29.89;32.63
61963;BME280;47927;42.646;23.096;2023-06-10T13:07:48;91660.97;;;28.65;35.50
61963;BME280;47927;42.646;23.096;2023-06-10T13:10:15;91670.13;;;27.65;36.77
61963;BME280;47927;42.646;23.096;2023-06-10T13:12:42;91688.28;;;26.80;38.77